Terminal Aerodrome Forecast
Issued by NWS

Home | Current Version | Previous Version | Text Only | Print | Product List | Glossary On
Versions: 1 2 3 4 5 6 7 8 9 10 11 12 13 14 15 16 17 18 19 20 21 22 23 24 25 26 27 28 29 30 31 32 33 34 35 36 37 38 39 40 41 42 43 44
000
FTUS45 KGJT 312332
TAFEGE
TAF
KEGE 312332Z 0100/0124 27005KT 4SM BR FEW020 OVC030
     FM010200 VRB03KT P6SM VCFG SCT025 SCT060
     FM011000 VRB03KT 3SM BR SCT006 BKN015
     FM011600 VRB03KT P6SM FEW020 SCT050
     FM011800 26005KT P6SM SCT050 BKN100
      AMD LTD TO CLD VIS AND WIND 0106/0114=

USA.gov is the U.S. government's official web portal to all federal, state and local government web resources and services.